sensor_id;sensor_type;location;lat;lon;timestamp;temperature;humidity
21489;DHT22;10906;45.194;5.684;2023-07-28T05:01:51;21.50;99.70
21489;DHT22;10906;45.194;5.684;2023-07-28T05:04:36;21.20;99.80
21489;DHT22;10906;45.194;5.684;2023-07-28T05:07:20;20.90;99.90
21489;DHT22;10906;45.194;5.684;2023-07-28T05:10:05;20.70;99.90
21489;DHT22;10906;45.194;5.684;2023-07-28T05:12:49;20.50;99.90
21489;DHT22;10906;45.194;5.684;2023-07-28T05:15:33;20.30;99.90
21489;DHT22;10906;45.194;5.684;2023-07-28T05:18:17;20.20;99.90
21489;DHT22;10906;45.194;5.684;2023-07-28T05:21:02;20.00;99.90
21489;DHT22;10906;45.194;5.684;2023-07-28T05:23:46;19.90;99.90
21489;DHT22;10906;45.194;5.684;2023-07-28T05:26:30;19.80;99.90
21489;DHT22;10906;45.194;5.684;2023-07-28T05:29:14;19.70;99.90
21489;DHT22;10906;45.194;5.684;2023-07-28T05:31:58;19.80;99.90
21489;DHT22;10906;45.194;5.684;2023-07-28T05:34:42;19.80;99.90
21489;DHT22;10906;45.194;5.684;2023-07-28T05:37:27;19.70;99.90
21489;DHT22;10906;45.194;5.684;2023-07-28T05:40:12;19.50;99.90
21489;DHT22;10906;45.194;5.684;2023-07-28T05:42:56;19.40;99.90
21489;DHT22;10906;45.194;5.684;2023-07-28T05:45:45;19.20;99.90
21489;DHT22;10906;45.194;5.684;2023-07-28T05:48:29;19.10;99.90
21489;DHT22;10906;45.194;5.684;2023-07-28T05:51:14;19.20;99.90
21489;DHT22;10906;45.194;5.684;2023-07-28T05:53:58;19.20;99.90
21489;DHT22;10906;45.194;5.684;2023-07-28T05:56:42;19.20;99.90
21489;DHT22;10906;45.194;5.684;2023-07-28T05:59:26;19.40;99.90
21489;DHT22;10906;45.194;5.684;2023-07-28T06:02:10;19.40;99.90
21489;DHT22;10906;45.194;5.684;2023-07-28T06:04:55;19.60;99.90
21489;DHT22;10906;45.194;5.684;2023-07-28T06:07:39;19.60;99.90
21489;DHT22;10906;45.194;5.684;2023-07-28T06:10:23;19.70;99.90
21489;DHT22;10906;45.194;5.684;2023-07-28T06:13:07;19.60;99.90
21489;DHT22;10906;45.194;5.684;2023-07-28T06:15:52;19.60;99.90
21489;DHT22;10906;45.194;5.684;2023-07-28T06:18:37;19.70;99.90
21489;DHT22;10906;45.194;5.684;2023-07-28T06:21:21;19.80;99.90
21489;DHT22;10906;45.194;5.684;2023-07-28T06:24:05;19.90;99.90
21489;DHT22;10906;45.194;5.684;2023-07-28T06:26:49;19.90;99.90
21489;DHT22;10906;45.194;5.684;2023-07-28T06:29:34;20.00;99.90
21489;DHT22;10906;45.194;5.684;2023-07-28T06:32:18;20.10;99.90
21489;DHT22;10906;45.194;5.684;2023-07-28T06:35:04;20.20;99.90
21489;DHT22;10906;45.194;5.684;2023-07-28T06:37:49;20.30;99.90
21489;DHT22;10906;45.194;5.684;2023-07-28T06:40:34;20.40;99.90
21489;DHT22;10906;45.194;5.684;2023-07-28T06:43:18;20.40;99.90
21489;DHT22;10906;45.194;5.684;2023-07-28T06:46:03;20.50;99.90
21489;DHT22;10906;45.194;5.684;2023-07-28T06:48:48;20.50;99.90
21489;DHT22;10906;45.194;5.684;2023-07-28T06:51:32;20.50;99.90
21489;DHT22;10906;45.194;5.684;2023-07-28T06:54:17;20.50;99.90
21489;DHT22;10906;45.194;5.684;2023-07-28T06:57:02;20.50;99.90
21489;DHT22;10906;45.194;5.684;2023-07-28T06:59:46;20.50;99.90
21489;DHT22;10906;45.194;5.684;2023-07-28T07:02:30;20.50;99.90
21489;DHT22;10906;45.194;5.684;2023-07-28T07:05:15;20.50;99.90
21489;DHT22;10906;45.194;5.684;2023-07-28T07:07:59;20.50;99.90
21489;DHT22;10906;45.194;5.684;2023-07-28T07:10:49;20.50;99.90
21489;DHT22;10906;45.194;5.684;2023-07-28T07:13:34;20.50;99.90
21489;DHT22;10906;45.194;5.684;2023-07-28T07:16:18;20.50;99.90
21489;DHT22;10906;45.194;5.684;2023-07-28T07:19:02;20.60;99.90
21489;DHT22;10906;45.194;5.684;2023-07-28T07:21:47;20.60;99.90
21489;DHT22;10906;45.194;5.684;2023-07-28T07:24:33;20.50;99.90
21489;DHT22;10906;45.194;5.684;2023-07-28T07:27:17;20.40;99.90
21489;DHT22;10906;45.194;5.684;2023-07-28T07:30:01;20.30;99.90
21489;DHT22;10906;45.194;5.684;2023-07-28T07:32:45;20.20;99.90
21489;DHT22;10906;45.194;5.684;2023-07-28T07:35:29;20.20;99.90
21489;DHT22;10906;45.194;5.684;2023-07-28T07:38:13;20.20;99.90
21489;DHT22;10906;45.194;5.684;2023-07-28T07:40:58;20.20;99.90
21489;DHT22;10906;45.194;5.684;2023-07-28T07:43:42;20.10;99.90
21489;DHT22;10906;45.194;5.684;2023-07-28T07:46:26;20.20;99.90
21489;DHT22;10906;45.194;5.684;2023-07-28T07:49:10;20.20;99.90
21489;DHT22;10906;45.194;5.684;2023-07-28T07:51:55;20.20;99.90
21489;DHT22;10906;45.194;5.684;2023-07-28T07:54:39;20.50;99.90
21489;DHT22;10906;45.194;5.684;2023-07-28T07:57:23;20.80;99.90
21489;DHT22;10906;45.194;5.684;2023-07-28T08:00:08;21.30;99.90
21489;DHT22;10906;45.194;5.684;2023-07-28T08:02:52;21.40;99.90
21489;DHT22;10906;45.194;5.684;2023-07-28T08:05:36;21.60;99.90
21489;DHT22;10906;45.194;5.684;2023-07-28T08:08:21;21.80;99.90
21489;DHT22;10906;45.194;5.684;2023-07-28T08:11:05;21.90;99.90
21489;DHT22;10906;45.194;5.684;2023-07-28T08:13:49;22.00;99.90
21489;DHT22;10906;45.194;5.684;2023-07-28T08:16:34;22.20;99.90
21489;DHT22;10906;45.194;5.684;2023-07-28T08:19:18;22.40;99.90
21489;DHT22;10906;45.194;5.684;2023-07-28T08:22:02;22.60;99.90
21489;DHT22;10906;45.194;5.684;2023-07-28T08:24:49;22.80;99.90
21489;DHT22;10906;45.194;5.684;2023-07-28T08:27:34;23.00;99.90
21489;DHT22;10906;45.194;5.684;2023-07-28T08:30:18;23.20;99.90
21489;DHT22;10906;45.194;5.684;2023-07-28T08:33:02;23.20;99.90
21489;DHT22;10906;45.194;5.684;2023-07-28T08:35:47;23.20;99.90
21489;DHT22;10906;45.194;5.684;2023-07-28T08:38:31;23.20;99.90
21489;DHT22;10906;45.194;5.684;2023-07-28T08:41:16;23.30;99.90
21489;DHT22;10906;45.194;5.684;2023-07-28T08:44:00;23.50;99.90
21489;DHT22;10906;45.194;5.684;2023-07-28T08:46:44;23.70;99.90
21489;DHT22;10906;45.194;5.684;2023-07-28T08:49:28;23.80;99.90
21489;DHT22;10906;45.194;5.684;2023-07-28T08:52:16;24.00;99.90
21489;DHT22;10906;45.194;5.684;2023-07-28T08:55:01;24.10;99.90
21489;DHT22;10906;45.194;5.684;2023-07-28T08:57:45;24.10;99.70
21489;DHT22;10906;45.194;5.684;2023-07-28T09:00:29;24.10;99.90
21489;DHT22;10906;45.194;5.684;2023-07-28T09:03:15;24.20;99.20
21489;DHT22;10906;45.194;5.684;2023-07-28T09:06:00;24.30;99.90
21489;DHT22;10906;45.194;5.684;2023-07-28T09:08:45;24.40;99.90
21489;DHT22;10906;45.194;5.684;2023-07-28T09:11:30;24.50;99.60
21489;DHT22;10906;45.194;5.684;2023-07-28T09:14:15;24.60;99.90
21489;DHT22;10906;45.194;5.684;2023-07-28T09:17:10;24.70;99.50
21489;DHT22;10906;45.194;5.684;2023-07-28T09:19:55;24.70;99.90
21489;DHT22;10906;45.194;5.684;2023-07-28T09:22:40;24.70;99.10
21489;DHT22;10906;45.194;5.684;2023-07-28T09:25:24;24.90;99.90
21489;DHT22;10906;45.194;5.684;2023-07-28T09:28:12;25.10;99.30
21489;DHT22;10906;45.194;5.684;2023-07-28T09:30:56;25.10;99.20
21489;DHT22;10906;45.194;5.684;2023-07-28T09:33:40;25.30;97.50
21489;DHT22;10906;45.194;5.684;2023-07-28T09:36:30;25.40;97.20
21489;DHT22;10906;45.194;5.684;2023-07-28T09:39:14;25.40;96.30
21489;DHT22;10906;45.194;5.684;2023-07-28T09:41:59;25.40;97.20
21489;DHT22;10906;45.194;5.684;2023-07-28T09:44:43;25.40;97.10
21489;DHT22;10906;45.194;5.684;2023-07-28T09:47:28;25.40;97.80
21489;DHT22;10906;45.194;5.684;2023-07-28T09:50:15;25.40;96.50
21489;DHT22;10906;45.194;5.684;2023-07-28T09:53:01;25.40;98.10
21489;DHT22;10906;45.194;5.684;2023-07-28T09:55:46;25.50;96.60
21489;DHT22;10906;45.194;5.684;2023-07-28T09:58:31;25.70;98.00
21489;DHT22;10906;45.194;5.684;2023-07-28T10:01:17;25.90;98.90
21489;DHT22;10906;45.194;5.684;2023-07-28T10:04:02;26.00;98.70
21489;DHT22;10906;45.194;5.684;2023-07-28T10:06:47;26.10;97.80
21489;DHT22;10906;45.194;5.684;2023-07-28T10:09:32;26.20;96.80
21489;DHT22;10906;45.194;5.684;2023-07-28T10:12:24;26.60;96.30
21489;DHT22;10906;45.194;5.684;2023-07-28T10:15:13;26.90;96.70
21489;DHT22;10906;45.194;5.684;2023-07-28T10:18:01;27.10;96.40
21489;DHT22;10906;45.194;5.684;2023-07-28T10:20:45;27.30;95.40
21489;DHT22;10906;45.194;5.684;2023-07-28T10:23:36;27.50;94.30
21489;DHT22;10906;45.194;5.684;2023-07-28T10:26:39;27.80;94.70
21489;DHT22;10906;45.194;5.684;2023-07-28T10:29:24;27.90;92.90
21489;DHT22;10906;45.194;5.684;2023-07-28T10:32:09;27.80;93.00
21489;DHT22;10906;45.194;5.684;2023-07-28T10:35:26;27.90;92.90
21489;DHT22;10906;45.194;5.684;2023-07-28T10:41:11;28.00;93.00
21489;DHT22;10906;45.194;5.684;2023-07-28T10:43:55;28.00;92.80
21489;DHT22;10906;45.194;5.684;2023-07-28T10:46:39;27.80;92.60
21489;DHT22;10906;45.194;5.684;2023-07-28T10:49:24;27.70;91.30
21489;DHT22;10906;45.194;5.684;2023-07-28T10:52:09;27.70;92.30
21489;DHT22;10906;45.194;5.684;2023-07-28T10:54:53;27.80;91.40
21489;DHT22;10906;45.194;5.684;2023-07-28T10:57:37;25.80;91.00
21489;DHT22;10906;45.194;5.684;2023-07-28T11:00:22;28.20;91.30
21489;DHT22;10906;45.194;5.684;2023-07-28T11:03:08;28.50;90.60
21489;DHT22;10906;45.194;5.684;2023-07-28T11:05:53;28.70;90.00
21489;DHT22;10906;45.194;5.684;2023-07-28T11:08:39;28.60;88.30
21489;DHT22;10906;45.194;5.684;2023-07-28T11:11:23;28.50;88.70
21489;DHT22;10906;45.194;5.684;2023-07-28T11:14:07;28.40;88.80
21489;DHT22;10906;45.194;5.684;2023-07-28T11:16:52;28.40;88.20
21489;DHT22;10906;45.194;5.684;2023-07-28T11:19:36;28.50;85.70
21489;DHT22;10906;45.194;5.684;2023-07-28T11:22:21;28.50;85.70
21489;DHT22;10906;45.194;5.684;2023-07-28T11:25:08;28.60;88.00
21489;DHT22;10906;45.194;5.684;2023-07-28T11:27:53;28.90;87.00
21489;DHT22;10906;45.194;5.684;2023-07-28T11:30:39;29.00;89.50
21489;DHT22;10906;45.194;5.684;2023-07-28T11:33:24;29.20;87.50
21489;DHT22;10906;45.194;5.684;2023-07-28T11:36:08;29.40;86.80
21489;DHT22;10906;45.194;5.684;2023-07-28T11:38:53;29.60;88.80
21489;DHT22;10906;45.194;5.684;2023-07-28T11:41:38;29.70;88.60
21489;DHT22;10906;45.194;5.684;2023-07-28T11:44:22;29.70;86.20
21489;DHT22;10906;45.194;5.684;2023-07-28T11:47:07;29.70;86.70
21489;DHT22;10906;45.194;5.684;2023-07-28T11:49:53;29.70;87.20
21489;DHT22;10906;45.194;5.684;2023-07-28T11:52:38;29.60;87.20
21489;DHT22;10906;45.194;5.684;2023-07-28T11:55:22;29.50;88.00
21489;DHT22;10906;45.194;5.684;2023-07-28T11:58:07;29.50;89.60
21489;DHT22;10906;45.194;5.684;2023-07-28T12:00:52;29.40;89.70
21489;DHT22;10906;45.194;5.684;2023-07-28T12:03:37;29.30;90.20
21489;DHT22;10906;45.194;5.684;2023-07-28T12:06:21;29.30;87.70
21489;DHT22;10906;45.194;5.684;2023-07-28T12:09:06;29.30;87.00
21489;DHT22;10906;45.194;5.684;2023-07-28T12:11:52;29.30;87.00
21489;DHT22;10906;45.194;5.684;2023-07-28T12:14:36;29.50;87.10
21489;DHT22;10906;45.194;5.684;2023-07-28T12:17:23;29.70;88.40
21489;DHT22;10906;45.194;5.684;2023-07-28T12:20:08;29.70;82.60
21489;DHT22;10906;45.194;5.684;2023-07-28T12:22:58;29.90;84.00
21489;DHT22;10906;45.194;5.684;2023-07-28T12:25:43;29.90;81.00
21489;DHT22;10906;45.194;5.684;2023-07-28T12:28:27;30.00;80.70
21489;DHT22;10906;45.194;5.684;2023-07-28T12:31:13;30.00;81.50
21489;DHT22;10906;45.194;5.684;2023-07-28T12:33:57;30.10;82.10
21489;DHT22;10906;45.194;5.684;2023-07-28T12:36:42;30.20;80.60
21489;DHT22;10906;45.194;5.684;2023-07-28T12:39:26;30.30;81.20
21489;DHT22;10906;45.194;5.684;2023-07-28T12:42:10;30.10;77.60
21489;DHT22;10906;45.194;5.684;2023-07-28T12:44:55;30.10;79.50
21489;DHT22;10906;45.194;5.684;2023-07-28T12:47:39;30.20;78.50
21489;DHT22;10906;45.194;5.684;2023-07-28T12:50:23;30.30;78.70
21489;DHT22;10906;45.194;5.684;2023-07-28T12:53:07;30.50;79.40
21489;DHT22;10906;45.194;5.684;2023-07-28T12:55:51;30.50;79.80
21489;DHT22;10906;45.194;5.684;2023-07-28T12:58:36;30.50;74.80
21489;DHT22;10906;45.194;5.684;2023-07-28T13:01:20;30.40;77.20
21489;DHT22;10906;45.194;5.684;2023-07-28T13:04:04;30.60;79.40
21489;DHT22;10906;45.194;5.684;2023-07-28T13:06:48;30.80;77.90
21489;DHT22;10906;45.194;5.684;2023-07-28T13:09:32;30.90;77.70
21489;DHT22;10906;45.194;5.684;2023-07-28T13:12:17;30.80;74.30
21489;DHT22;10906;45.194;5.684;2023-07-28T13:15:01;30.40;75.50
21489;DHT22;10906;45.194;5.684;2023-07-28T13:17:46;30.20;75.90
21489;DHT22;10906;45.194;5.684;2023-07-28T13:20:30;30.00;76.50
21489;DHT22;10906;45.194;5.684;2023-07-28T13:23:14;30.00;78.50
21489;DHT22;10906;45.194;5.684;2023-07-28T13:25:58;30.00;78.50
21489;DHT22;10906;45.194;5.684;2023-07-28T13:28:43;30.10;77.70
21489;DHT22;10906;45.194;5.684;2023-07-28T13:31:30;30.20;77.10
21489;DHT22;10906;45.194;5.684;2023-07-28T13:34:14;30.30;76.60
21489;DHT22;10906;45.194;5.684;2023-07-28T13:36:59;30.40;79.00
21489;DHT22;10906;45.194;5.684;2023-07-28T13:39:43;30.60;76.50
21489;DHT22;10906;45.194;5.684;2023-07-28T13:42:27;31.00;81.60
21489;DHT22;10906;45.194;5.684;2023-07-28T13:45:11;31.30;75.40
21489;DHT22;10906;45.194;5.684;2023-07-28T13:47:55;31.10;74.70
21489;DHT22;10906;45.194;5.684;2023-07-28T13:50:39;31.00;74.00
21489;DHT22;10906;45.194;5.684;2023-07-28T13:53:23;30.90;72.30
21489;DHT22;10906;45.194;5.684;2023-07-28T13:56:08;30.60;75.30
21489;DHT22;10906;45.194;5.684;2023-07-28T13:58:52;30.60;75.30
21489;DHT22;10906;45.194;5.684;2023-07-28T14:01:36;30.70;74.90
21489;DHT22;10906;45.194;5.684;2023-07-28T14:04:20;30.80;76.60
21489;DHT22;10906;45.194;5.684;2023-07-28T14:07:04;31.20;78.30
21489;DHT22;10906;45.194;5.684;2023-07-28T14:09:48;31.90;74.10
21489;DHT22;10906;45.194;5.684;2023-07-28T14:12:33;32.00;75.80
21489;DHT22;10906;45.194;5.684;2023-07-28T14:15:17;32.10;75.00
21489;DHT22;10906;45.194;5.684;2023-07-28T14:18:01;31.60;71.40
21489;DHT22;10906;45.194;5.684;2023-07-28T14:20:45;31.20;73.80
21489;DHT22;10906;45.194;5.684;2023-07-28T14:23:30;30.80;75.00
21489;DHT22;10906;45.194;5.684;2023-07-28T14:26:14;27.70;72.30
21489;DHT22;10906;45.194;5.684;2023-07-28T14:28:58;30.30;76.20
21489;DHT22;10906;45.194;5.684;2023-07-28T14:31:42;30.20;77.80
21489;DHT22;10906;45.194;5.684;2023-07-28T14:34:27;30.00;78.40
21489;DHT22;10906;45.194;5.684;2023-07-28T14:37:12;29.90;77.10
21489;DHT22;10906;45.194;5.684;2023-07-28T14:39:56;29.80;77.80
21489;DHT22;10906;45.194;5.684;2023-07-28T14:42:40;30.30;78.20
21489;DHT22;10906;45.194;5.684;2023-07-28T14:45:24;29.60;77.50
21489;DHT22;10906;45.194;5.684;2023-07-28T14:48:09;29.60;79.20
21489;DHT22;10906;45.194;5.684;2023-07-28T14:50:53;29.50;77.70
21489;DHT22;10906;45.194;5.684;2023-07-28T14:53:37;29.70;78.00
21489;DHT22;10906;45.194;5.684;2023-07-28T14:56:23;29.70;77.10
21489;DHT22;10906;45.194;5.684;2023-07-28T14:59:11;29.90;77.40
21489;DHT22;10906;45.194;5.684;2023-07-28T15:01:55;30.30;76.30
21489;DHT22;10906;45.194;5.684;2023-07-28T15:04:39;29.80;76.20
21489;DHT22;10906;45.194;5.684;2023-07-28T15:07:24;29.80;75.50
21489;DHT22;10906;45.194;5.684;2023-07-28T15:10:08;29.70;74.40
21489;DHT22;10906;45.194;5.684;2023-07-28T15:12:53;29.80;74.70
21489;DHT22;10906;45.194;5.684;2023-07-28T15:15:37;29.90;73.20
21489;DHT22;10906;45.194;5.684;2023-07-28T15:18:21;33.30;79.40
21489;DHT22;10906;45.194;5.684;2023-07-28T15:21:05;31.20;72.50
21489;DHT22;10906;45.194;5.684;2023-07-28T15:23:53;31.20;69.80
21489;DHT22;10906;45.194;5.684;2023-07-28T15:26:37;31.70;70.30
21489;DHT22;10906;45.194;5.684;2023-07-28T15:29:22;32.20;68.70
21489;DHT22;10906;45.194;5.684;2023-07-28T15:32:07;32.20;67.00
21489;DHT22;10906;45.194;5.684;2023-07-28T15:34:51;32.00;69.40
21489;DHT22;10906;45.194;5.684;2023-07-28T15:37:35;31.60;66.50
21489;DHT22;10906;45.194;5.684;2023-07-28T15:40:19;31.40;68.70
21489;DHT22;10906;45.194;5.684;2023-07-28T15:43:03;31.40;70.00
21489;DHT22;10906;45.194;5.684;2023-07-28T15:45:48;31.40;69.80
21489;DHT22;10906;45.194;5.684;2023-07-28T15:48:36;31.70;74.40
21489;DHT22;10906;45.194;5.684;2023-07-28T15:51:20;31.90;70.70
21489;DHT22;10906;45.194;5.684;2023-07-28T15:54:04;31.80;68.40
21489;DHT22;10906;45.194;5.684;2023-07-28T15:56:49;31.80;69.20
21489;DHT22;10906;45.194;5.684;2023-07-28T15:59:33;31.70;74.90
21489;DHT22;10906;45.194;5.684;2023-07-28T16:02:18;31.70;69.00
21489;DHT22;10906;45.194;5.684;2023-07-28T16:05:02;31.70;70.70
21489;DHT22;10906;45.194;5.684;2023-07-28T16:07:47;31.60;69.60
21489;DHT22;10906;45.194;5.684;2023-07-28T16:10:31;31.40;71.40
21489;DHT22;10906;45.194;5.684;2023-07-28T16:13:15;31.50;71.20
21489;DHT22;10906;45.194;5.684;2023-07-28T16:15:59;31.40;70.20
21489;DHT22;10906;45.194;5.684;2023-07-28T16:18:43;31.30;72.90
21489;DHT22;10906;45.194;5.684;2023-07-28T16:21:27;31.20;72.00
21489;DHT22;10906;45.194;5.684;2023-07-28T16:24:11;31.10;72.90
21489;DHT22;10906;45.194;5.684;2023-07-28T16:26:56;31.20;73.80
21489;DHT22;10906;45.194;5.684;2023-07-28T16:29:41;31.20;70.70
21489;DHT22;10906;45.194;5.684;2023-07-28T16:32:25;31.20;71.90
21489;DHT22;10906;45.194;5.684;2023-07-28T16:35:10;31.10;74.40
21489;DHT22;10906;45.194;5.684;2023-07-28T16:37:54;31.20;74.90
21489;DHT22;10906;45.194;5.684;2023-07-28T16:40:39;31.40;75.10
21489;DHT22;10906;45.194;5.684;2023-07-28T16:43:23;31.20;74.90
21489;DHT22;10906;45.194;5.684;2023-07-28T16:46:07;31.30;76.70
21489;DHT22;10906;45.194;5.684;2023-07-28T16:48:51;33.00;78.60
21489;DHT22;10906;45.194;5.684;2023-07-28T16:51:36;31.20;76.30
21489;DHT22;10906;45.194;5.684;2023-07-28T16:54:20;31.10;76.40
21489;DHT22;10906;45.194;5.684;2023-07-28T16:57:04;31.00;78.30
21489;DHT22;10906;45.194;5.684;2023-07-28T16:59:48;30.90;76.00
21489;DHT22;10906;45.194;5.684;2023-07-28T17:02:33;30.70;75.70
21489;DHT22;10906;45.194;5.684;2023-07-28T17:05:17;30.50;76.10
21489;DHT22;10906;45.194;5.684;2023-07-28T17:08:01;30.50;78.80
21489;DHT22;10906;45.194;5.684;2023-07-28T17:10:46;30.40;76.30
21489;DHT22;10906;45.194;5.684;2023-07-28T17:13:30;30.30;77.40
21489;DHT22;10906;45.194;5.684;2023-07-28T17:16:15;30.30;76.50
21489;DHT22;10906;45.194;5.684;2023-07-28T17:18:59;30.30;76.20
21489;DHT22;10906;45.194;5.684;2023-07-28T17:21:43;30.10;75.70
21489;DHT22;10906;45.194;5.684;2023-07-28T17:24:27;30.10;76.40
21489;DHT22;10906;45.194;5.684;2023-07-28T17:27:11;28.80;75.40
21489;DHT22;10906;45.194;5.684;2023-07-28T17:29:55;29.90;77.00
21489;DHT22;10906;45.194;5.684;2023-07-28T17:32:43;29.80;78.30
21489;DHT22;10906;45.194;5.684;2023-07-28T17:35:29;29.60;78.10
21489;DHT22;10906;45.194;5.684;2023-07-28T17:38:13;29.60;78.90
21489;DHT22;10906;45.194;5.684;2023-07-28T17:40:57;29.50;79.20
21489;DHT22;10906;45.194;5.684;2023-07-28T17:43:42;29.40;80.70
21489;DHT22;10906;45.194;5.684;2023-07-28T17:46:27;29.30;79.00
21489;DHT22;10906;45.194;5.684;2023-07-28T17:49:11;29.30;79.60
21489;DHT22;10906;45.194;5.684;2023-07-28T17:51:55;29.20;81.30
21489;DHT22;10906;45.194;5.684;2023-07-28T17:54:39;29.10;81.20
21489;DHT22;10906;45.194;5.684;2023-07-28T17:57:23;29.10;82.00
21489;DHT22;10906;45.194;5.684;2023-07-28T18:00:08;29.00;81.50
21489;DHT22;10906;45.194;5.684;2023-07-28T18:02:52;28.90;80.40
21489;DHT22;10906;45.194;5.684;2023-07-28T18:05:36;28.90;81.30
21489;DHT22;10906;45.194;5.684;2023-07-28T18:08:21;28.80;81.50
21489;DHT22;10906;45.194;5.684;2023-07-28T18:11:06;28.80;80.80
21489;DHT22;10906;45.194;5.684;2023-07-28T18:13:50;28.70;81.60
21489;DHT22;10906;45.194;5.684;2023-07-28T18:16:34;27.00;81.90
21489;DHT22;10906;45.194;5.684;2023-07-28T18:19:18;28.70;84.40
21489;DHT22;10906;45.194;5.684;2023-07-28T18:22:02;28.70;84.80
21489;DHT22;10906;45.194;5.684;2023-07-28T18:24:46;28.60;82.40
21489;DHT22;10906;45.194;5.684;2023-07-28T18:27:31;28.50;85.70
21489;DHT22;10906;45.194;5.684;2023-07-28T18:30:15;28.50;84.40
21489;DHT22;10906;45.194;5.684;2023-07-28T18:33:00;28.30;84.60
21489;DHT22;10906;45.194;5.684;2023-07-28T18:35:44;28.30;84.30
21489;DHT22;10906;45.194;5.684;2023-07-28T18:38:28;28.20;85.40
21489;DHT22;10906;45.194;5.684;2023-07-28T18:41:12;28.20;87.10
21489;DHT22;10906;45.194;5.684;2023-07-28T18:43:57;28.10;87.00
21489;DHT22;10906;45.194;5.684;2023-07-28T18:46:41;28.00;87.70
21489;DHT22;10906;45.194;5.684;2023-07-28T18:49:25;27.80;87.40
21489;DHT22;10906;45.194;5.684;2023-07-28T18:52:09;27.80;87.50
21489;DHT22;10906;45.194;5.684;2023-07-28T18:54:54;27.70;88.00
21489;DHT22;10906;45.194;5.684;2023-07-28T18:57:38;27.60;86.80
21489;DHT22;10906;45.194;5.684;2023-07-28T19:00:22;27.60;88.30
21489;DHT22;10906;45.194;5.684;2023-07-28T19:03:06;27.50;86.60
21489;DHT22;10906;45.194;5.684;2023-07-28T19:05:50;27.40;85.30
21489;DHT22;10906;45.194;5.684;2023-07-28T19:08:34;27.30;88.10
21489;DHT22;10906;45.194;5.684;2023-07-28T19:11:20;27.30;87.30
21489;DHT22;10906;45.194;5.684;2023-07-28T19:14:04;27.20;88.60
21489;DHT22;10906;45.194;5.684;2023-07-28T19:16:48;27.10;88.00
21489;DHT22;10906;45.194;5.684;2023-07-28T19:19:33;27.10;87.80
21489;DHT22;10906;45.194;5.684;2023-07-28T19:22:18;27.00;88.70
21489;DHT22;10906;45.194;5.684;2023-07-28T19:25:03;26.90;88.50
21489;DHT22;10906;45.194;5.684;2023-07-28T19:27:49;26.90;88.60
21489;DHT22;10906;45.194;5.684;2023-07-28T19:30:34;26.80;87.80
21489;DHT22;10906;45.194;5.684;2023-07-28T19:33:19;26.70;87.70
21489;DHT22;10906;45.194;5.684;2023-07-28T19:36:04;26.60;87.70
21489;DHT22;10906;45.194;5.684;2023-07-28T19:38:48;26.50;88.20
21489;DHT22;10906;45.194;5.684;2023-07-28T19:41:33;26.40;87.50
21489;DHT22;10906;45.194;5.684;2023-07-28T19:44:17;26.30;89.20
21489;DHT22;10906;45.194;5.684;2023-07-28T19:47:01;26.20;88.50
21489;DHT22;10906;45.194;5.684;2023-07-28T19:49:45;26.10;86.90
21489;DHT22;10906;45.194;5.684;2023-07-28T19:52:29;26.00;85.90
21489;DHT22;10906;45.194;5.684;2023-07-28T19:55:14;26.00;88.40
21489;DHT22;10906;45.194;5.684;2023-07-28T19:57:58;25.90;88.70
21489;DHT22;10906;45.194;5.684;2023-07-28T20:00:43;25.80;87.70
21489;DHT22;10906;45.194;5.684;2023-07-28T20:03:27;25.90;88.00
21489;DHT22;10906;45.194;5.684;2023-07-28T20:06:11;25.80;87.70
21489;DHT22;10906;45.194;5.684;2023-07-28T20:08:55;25.80;88.30
21489;DHT22;10906;45.194;5.684;2023-07-28T20:11:39;25.70;88.80
21489;DHT22;10906;45.194;5.684;2023-07-28T20:14:23;25.70;88.10
21489;DHT22;10906;45.194;5.684;2023-07-28T20:17:08;25.70;88.60
21489;DHT22;10906;45.194;5.684;2023-07-28T20:19:52;25.60;88.50
21489;DHT22;10906;45.194;5.684;2023-07-28T20:22:36;25.60;89.80
21489;DHT22;10906;45.194;5.684;2023-07-28T20:25:20;25.50;89.80
21489;DHT22;10906;45.194;5.684;2023-07-28T20:28:05;25.40;90.20
21489;DHT22;10906;45.194;5.684;2023-07-28T20:30:49;25.40;90.20
21489;DHT22;10906;45.194;5.684;2023-07-28T20:33:33;25.40;90.10
21489;DHT22;10906;45.194;5.684;2023-07-28T20:36:17;25.40;90.50
21489;DHT22;10906;45.194;5.684;2023-07-28T20:39:02;25.40;90.50
21489;DHT22;10906;45.194;5.684;2023-07-28T20:41:46;25.40;90.60
21489;DHT22;10906;45.194;5.684;2023-07-28T20:44:31;25.30;91.00
21489;DHT22;10906;45.194;5.684;2023-07-28T20:47:15;25.20;91.00
21489;DHT22;10906;45.194;5.684;2023-07-28T20:49:59;25.20;90.50
21489;DHT22;10906;45.194;5.684;2023-07-28T20:52:44;25.10;90.90
21489;DHT22;10906;45.194;5.684;2023-07-28T20:55:28;25.00;91.00
21489;DHT22;10906;45.194;5.684;2023-07-28T20:58:12;25.00;90.60
21489;DHT22;10906;45.194;5.684;2023-07-28T21:00:56;24.90;91.00
21489;DHT22;10906;45.194;5.684;2023-07-28T21:03:41;24.90;90.90
21489;DHT22;10906;45.194;5.684;2023-07-28T21:06:26;24.80;90.90
21489;DHT22;10906;45.194;5.684;2023-07-28T21:09:10;24.70;91.30
21489;DHT22;10906;45.194;5.684;2023-07-28T21:11:54;24.70;91.40
21489;DHT22;10906;45.194;5.684;2023-07-28T21:14:38;24.60;91.30
21489;DHT22;10906;45.194;5.684;2023-07-28T21:17:23;24.40;91.10
21489;DHT22;10906;45.194;5.684;2023-07-28T21:20:10;24.40;91.30
21489;DHT22;10906;45.194;5.684;2023-07-28T21:22:55;24.30;91.20
21489;DHT22;10906;45.194;5.684;2023-07-28T21:25:39;24.20;91.60
21489;DHT22;10906;45.194;5.684;2023-07-28T21:28:24;24.20;91.60
21489;DHT22;10906;45.194;5.684;2023-07-28T21:31:08;24.20;91.60
21489;DHT22;10906;45.194;5.684;2023-07-28T21:33:52;24.30;91.60
21489;DHT22;10906;45.194;5.684;2023-07-28T21:36:36;24.30;91.70
21489;DHT22;10906;45.194;5.684;2023-07-28T21:39:20;24.30;91.60
21489;DHT22;10906;45.194;5.684;2023-07-28T21:42:09;24.20;91.50
21489;DHT22;10906;45.194;5.684;2023-07-28T21:44:54;24.30;91.60
21489;DHT22;10906;45.194;5.684;2023-07-28T21:47:38;24.20;92.00
21489;DHT22;10906;45.194;5.684;2023-07-28T21:50:22;24.10;92.00
21489;DHT22;10906;45.194;5.684;2023-07-28T21:53:07;24.10;92.00
21489;DHT22;10906;45.194;5.684;2023-07-28T21:55:51;24.10;92.10
21489;DHT22;10906;45.194;5.684;2023-07-28T21:58:35;24.10;92.00
